createdAt,value
2023-04-11T00:00:41.604Z,97805.63
2023-04-11T00:06:07.665Z,97785.25
2023-04-11T00:11:31.616Z,97782.94
2023-04-11T00:17:00.612Z,97787.19
2023-04-11T00:22:27.044Z,97795.28
2023-04-11T00:27:51.618Z,97791.78
2023-04-11T00:33:18.669Z,97804.97
2023-04-11T00:38:43.634Z,97811.47
2023-04-11T00:44:09.020Z,97832.75
2023-04-11T00:49:39.043Z,97833.66
2023-04-11T00:55:03.639Z,97829.81
2023-04-11T01:00:29.638Z,97800.75
2023-04-11T01:05:58.664Z,97790.53
2023-04-11T01:11:27.644Z,97784.66
2023-04-11T01:16:53.690Z,97789.84
2023-04-11T01:22:24.662Z,97786.78
2023-04-11T01:27:51.684Z,97785.16
2023-04-11T01:33:17.656Z,97771.69
2023-04-11T01:38:41.736Z,97760.44
2023-04-11T01:44:09.820Z,97748.34
2023-04-11T01:49:35.671Z,97754.06
2023-04-11T01:55:01.688Z,97741.97
2023-04-11T02:00:33.705Z,97735.91
2023-04-11T02:05:59.705Z,97729.03
2023-04-11T02:11:24.712Z,97731.91
2023-04-11T02:17:02.800Z,97720.47
2023-04-11T02:22:27.674Z,97724.66
2023-04-11T02:27:52.704Z,97717.63
2023-04-11T02:33:20.703Z,97705.34
2023-04-11T02:38:45.678Z,97704.66
2023-04-11T02:44:09.722Z,97698.13
2023-04-11T02:49:38.680Z,97687.72
2023-04-11T02:55:07.689Z,97682.34
2023-04-11T03:00:32.799Z,97684.00
2023-04-11T03:06:03.722Z,97673.28
2023-04-11T03:11:29.723Z,97670.44
2023-04-11T03:16:55.723Z,97672.66
2023-04-11T03:22:26.682Z,97666.41
2023-04-11T03:27:52.727Z,97647.63
2023-04-11T03:33:18.702Z,97638.06
2023-04-11T03:38:45.742Z,97625.66
2023-04-11T03:44:12.721Z,97657.31
2023-04-11T03:49:38.743Z,97665.88
2023-04-11T03:55:09.739Z,97678.47
2023-04-11T04:00:35.763Z,97670.25
2023-04-11T04:06:00.743Z,97682.63
2023-04-11T04:11:28.752Z,97677.94
2023-04-11T04:22:40.486Z,97687.00
2023-04-11T04:28:16.738Z,97689.84
2023-04-11T04:39:48.739Z,97694.00
2023-04-11T04:45:21.750Z,97708.28
2023-04-11T04:50:47.830Z,97697.88
2023-04-11T04:56:12.820Z,97693.53
2023-04-11T05:01:46.858Z,97709.97
2023-04-11T05:07:20.406Z,97718.66
2023-04-11T05:12:47.844Z,97730.22
2023-04-11T05:18:15.779Z,97726.88
2023-04-11T05:23:39.771Z,97717.13
2023-04-11T05:29:04.792Z,97724.81
2023-04-11T05:40:54.865Z,97733.88
2023-04-11T05:46:22.869Z,97726.81
2023-04-11T05:51:46.786Z,97741.56
2023-04-11T05:57:13.833Z,97746.75
2023-04-11T06:02:40.969Z,97741.09
2023-04-11T06:08:06.801Z,97732.19
2023-04-11T06:13:31.801Z,97718.63
2023-04-11T06:19:05.812Z,97731.19
2023-04-11T06:24:44.776Z,97723.81
2023-04-11T06:30:08.803Z,97701.84
2023-04-11T06:35:36.870Z,97695.16
2023-04-11T06:41:02.788Z,97730.88
2023-04-11T06:46:27.910Z,97734.06
2023-04-11T06:51:56.832Z,97736.59
2023-04-11T06:57:21.824Z,97719.66
2023-04-11T07:02:46.045Z,97733.75
2023-04-11T07:08:17.378Z,97726.88
2023-04-11T07:13:42.939Z,97716.34
2023-04-11T07:19:13.813Z,97730.63
2023-04-11T07:24:49.822Z,97727.09
2023-04-11T07:30:15.852Z,97718.81
2023-04-11T07:35:40.846Z,97726.34
2023-04-11T07:41:11.813Z,97739.28
2023-04-11T07:46:35.854Z,97729.56
2023-04-11T07:52:00.943Z,97725.03
2023-04-11T07:57:29.041Z,97726.84
2023-04-11T08:02:54.230Z,97733.75
2023-04-11T08:08:18.836Z,97745.47
2023-04-11T08:13:46.839Z,97746.09
2023-04-11T08:19:10.871Z,97748.13
2023-04-11T08:24:35.896Z,97742.09
2023-04-11T08:30:02.999Z,97737.88
2023-04-11T08:35:27.867Z,97745.50
2023-04-11T08:40:52.878Z,97733.66
2023-04-11T08:46:20.940Z,97727.19
2023-04-11T08:51:44.972Z,97715.16
2023-04-11T08:57:09.876Z,97729.75
2023-04-11T09:02:37.933Z,97730.41
2023-04-11T09:08:04.141Z,97730.19
2023-04-11T09:13:36.882Z,97740.94
2023-04-11T09:19:10.867Z,97718.31
2023-04-11T09:24:37.018Z,97730.69
2023-04-11T09:30:02.928Z,97726.31
2023-04-11T09:35:34.925Z,97703.41
2023-04-11T09:40:59.902Z,97708.38
2023-04-11T09:46:24.885Z,97713.06
2023-04-11T09:51:52.912Z,97689.31
2023-04-11T09:57:17.892Z,97708.72
2023-04-11T10:02:43.005Z,97730.06
2023-04-11T10:08:14.957Z,97781.78
2023-04-11T10:13:56.127Z,97769.69
2023-04-11T10:19:49.042Z,97839.97
2023-04-11T10:25:30.933Z,97822.84
2023-04-11T10:31:10.937Z,97810.34
2023-04-11T10:36:35.919Z,97804.38
2023-04-11T10:42:02.924Z,97815.84
2023-04-11T10:47:32.983Z,97821.31
2023-04-11T10:52:56.926Z,97816.16
2023-04-11T10:58:25.917Z,97819.06
2023-04-11T11:03:51.177Z,97816.38
2023-04-11T11:09:30.945Z,97819.81
2023-04-11T11:15:00.921Z,97851.34
2023-04-11T11:20:26.998Z,97854.63
2023-04-11T11:25:51.960Z,97902.78
2023-04-11T11:31:20.104Z,97886.31
2023-04-11T11:36:44.977Z,97872.56
2023-04-11T11:42:09.966Z,97867.50
2023-04-11T11:47:37.000Z,97855.06
2023-04-11T11:53:01.966Z,97869.09
2023-04-11T11:58:25.953Z,97876.38
2023-04-11T12:03:54.188Z,97866.66
2023-04-11T12:09:19.986Z,97874.78
2023-04-11T12:14:44.964Z,97874.63
2023-04-11T12:20:14.992Z,97879.03
2023-04-11T12:25:39.990Z,97869.00
2023-04-11T12:31:04.012Z,97865.44
2023-04-11T12:41:56.997Z,97865.09
2023-04-11T12:47:22.049Z,97878.75
2023-04-11T12:52:57.981Z,97851.34
2023-04-11T12:58:23.011Z,97855.22
2023-04-11T13:03:48.119Z,97853.50
2023-04-11T13:09:16.021Z,97854.53
2023-04-11T13:14:43.086Z,97853.13
2023-04-11T13:20:07.996Z,97846.00
2023-04-11T13:25:35.017Z,97857.38
2023-04-11T13:31:00.028Z,97896.00
2023-04-11T13:36:26.039Z,97874.34
2023-04-11T13:41:54.023Z,97872.69
2023-04-11T13:47:19.046Z,97872.88
2023-04-11T13:52:44.008Z,97876.50
2023-04-11T13:58:11.103Z,97856.81
2023-04-11T14:03:40.102Z,97872.38
2023-04-11T14:09:04.078Z,97858.75
2023-04-11T14:14:32.062Z,97848.94
2023-04-11T14:20:03.035Z,97849.44
2023-04-11T14:25:29.040Z,97864.88
2023-04-11T14:30:56.187Z,97871.19
2023-04-11T14:36:21.390Z,97864.50
2023-04-11T14:41:45.118Z,97870.75
2023-04-11T14:47:13.090Z,97877.34
2023-04-11T14:52:37.059Z,97888.16
2023-04-11T14:58:04.051Z,97938.50
2023-04-11T15:03:32.251Z,97937.16
2023-04-11T15:08:57.149Z,97911.44
2023-04-11T15:14:21.064Z,97905.66
2023-04-11T15:19:55.087Z,97898.56
2023-04-11T15:25:23.038Z,97908.09
2023-04-11T15:30:47.080Z,97906.97
2023-04-11T15:36:15.132Z,97908.47
2023-04-11T15:41:39.203Z,97908.41
2023-04-11T15:47:04.113Z,97916.13
2023-04-11T15:52:31.078Z,97927.78
2023-04-11T15:57:56.065Z,98007.53
2023-04-11T16:03:23.381Z,97984.16
2023-04-11T16:08:51.114Z,97982.63
2023-04-11T16:14:16.110Z,97977.06
2023-04-11T16:19:48.384Z,97967.63
2023-04-11T16:25:17.120Z,97945.50
2023-04-11T16:30:41.130Z,97942.09
2023-04-11T16:36:06.109Z,97954.84
2023-04-11T16:41:33.108Z,97948.31
2023-04-11T16:46:58.207Z,97950.63
2023-04-11T16:52:22.153Z,97966.97
2023-04-11T16:57:50.494Z,97963.63
2023-04-11T17:03:14.420Z,97976.88
2023-04-11T17:08:39.110Z,97971.16
2023-04-11T17:14:07.133Z,97979.19
2023-04-11T17:19:32.129Z,97970.84
2023-04-11T17:24:56.131Z,97967.06
2023-04-11T17:30:26.163Z,97973.84
2023-04-11T17:35:51.268Z,97980.81
2023-04-11T17:41:17.520Z,97998.41
2023-04-11T17:46:44.198Z,98027.09
2023-04-11T17:52:09.159Z,98022.63
2023-04-11T17:57:34.158Z,98008.06
2023-04-11T18:03:10.245Z,98048.91
2023-04-11T18:08:49.958Z,98072.69
2023-04-11T18:14:16.145Z,98095.22
2023-04-11T18:19:50.241Z,98137.31
2023-04-11T18:25:16.291Z,98147.16
2023-04-11T18:30:41.289Z,98095.47
2023-04-11T18:36:09.211Z,98049.88
2023-04-11T18:41:34.190Z,98067.38
2023-04-11T18:47:01.416Z,98076.75
2023-04-11T18:52:30.168Z,98068.28
2023-04-11T18:57:57.950Z,98070.03
2023-04-11T19:03:27.260Z,98066.69
2023-04-11T19:08:55.198Z,98083.03
2023-04-11T19:14:20.273Z,98078.97
2023-04-11T19:19:52.599Z,98073.19
2023-04-11T19:25:21.260Z,98074.00
2023-04-11T19:30:46.174Z,98081.19
2023-04-11T19:36:11.751Z,98084.38
2023-04-11T19:41:38.196Z,98086.03
2023-04-11T19:47:03.246Z,98080.97
2023-04-11T19:52:28.210Z,98082.19
2023-04-11T19:57:50.229Z,98074.59
2023-04-11T20:03:21.429Z,98063.59
2023-04-11T20:08:46.225Z,98067.03
2023-04-11T20:14:14.212Z,98064.66
2023-04-11T20:19:46.239Z,98050.56
2023-04-11T20:25:11.262Z,98064.41
2023-04-11T20:30:39.265Z,98058.69
2023-04-11T20:36:05.291Z,98071.91
2023-04-11T20:41:31.217Z,98065.28
2023-04-11T20:47:00.233Z,98069.56
2023-04-11T20:52:25.253Z,98060.28
2023-04-11T20:57:51.301Z,98048.69
2023-04-11T21:03:19.288Z,98037.19
2023-04-11T21:08:45.242Z,98033.53
2023-04-11T21:14:09.229Z,98028.75
2023-04-11T21:19:43.284Z,98029.84
2023-04-11T21:25:08.258Z,98039.66
2023-04-11T21:30:32.276Z,98032.53
2023-04-11T21:36:02.346Z,98019.44
2023-04-11T21:41:26.252Z,98023.09
2023-04-11T21:46:51.284Z,98029.25
2023-04-11T21:52:18.270Z,98033.75
2023-04-11T21:57:43.260Z,98039.47
2023-04-11T22:03:08.557Z,98033.22
2023-04-11T22:08:36.263Z,98023.47
2023-04-11T22:14:01.269Z,98011.09
2023-04-11T22:19:31.377Z,98005.78
2023-04-11T22:24:59.329Z,97997.91
2023-04-11T22:30:25.300Z,98003.09
2023-04-11T22:35:50.293Z,98004.81
2023-04-11T22:41:24.274Z,97994.13
2023-04-11T22:46:49.285Z,97982.50
2023-04-11T22:52:15.345Z,97982.25
2023-04-11T22:57:43.330Z,97980.31
2023-04-11T23:03:09.287Z,97969.03
2023-04-11T23:08:35.302Z,97965.56
2023-04-11T23:14:04.299Z,97962.03
2023-04-11T23:19:28.310Z,97942.06
2023-04-11T23:24:53.285Z,97940.19
2023-04-11T23:30:21.270Z,97936.94
2023-04-11T23:35:54.303Z,97926.53
2023-04-11T23:41:19.322Z,97915.63
2023-04-11T23:46:47.446Z,97916.34
2023-04-11T23:52:12.284Z,97903.88
2023-04-11T23:57:38.298Z,97881.72
